createdAt,value
2019-04-07T00:00:57.550Z,17.23
2019-04-07T00:03:27.760Z,16.73
2019-04-07T00:05:57.516Z,17.57
2019-04-07T00:08:27.319Z,15.87
2019-04-07T00:10:56.843Z,17.23
2019-04-07T00:13:26.333Z,16.70
2019-04-07T00:15:55.816Z,15.43
2019-04-07T00:18:25.324Z,16.57
2019-04-07T00:20:55.226Z,15.40
2019-04-07T00:23:24.904Z,15.30
2019-04-07T00:25:54.417Z,16.30
2019-04-07T00:28:23.908Z,15.27
2019-04-07T00:30:53.432Z,15.67
2019-04-07T00:33:22.956Z,16.43
2019-04-07T00:35:52.457Z,16.03
2019-04-07T00:38:21.954Z,15.10
2019-04-07T00:40:51.523Z,15.77
2019-04-07T00:43:21.006Z,15.60
2019-04-07T00:45:50.901Z,15.47
2019-04-07T00:48:21.183Z,14.47
2019-04-07T00:50:51.285Z,16.77
2019-04-07T00:53:21.079Z,15.97
2019-04-07T00:55:50.761Z,15.40
2019-04-07T00:58:20.244Z,16.60
2019-04-07T01:00:50.487Z,15.50
2019-04-07T01:03:20.187Z,17.63
2019-04-07T01:05:49.673Z,16.17
2019-04-07T01:08:19.242Z,16.83
2019-04-07T01:10:49.083Z,15.03
2019-04-07T01:13:18.604Z,16.40
2019-04-07T01:15:48.435Z,16.63
2019-04-07T01:18:18.199Z,18.57
2019-04-07T01:20:48.373Z,17.27
2019-04-07T01:23:18.209Z,16.90
2019-04-07T01:25:47.869Z,17.83
2019-04-07T01:28:17.357Z,17.83
2019-04-07T01:30:46.957Z,15.60
2019-04-07T01:33:16.448Z,17.83
2019-04-07T01:35:48.702Z,17.23
2019-04-07T01:38:17.069Z,17.90
2019-04-07T01:40:54.432Z,17.90
2019-04-07T01:43:30.197Z,17.57
2019-04-07T01:46:18.406Z,17.87
2019-04-07T01:49:11.017Z,18.30
2019-04-07T01:52:16.138Z,16.93
2019-04-07T01:55:04.879Z,17.00
2019-04-07T01:57:53.443Z,15.77
2019-04-07T02:00:42.931Z,17.57
2019-04-07T02:03:25.332Z,16.60
2019-04-07T02:06:21.017Z,16.87
2019-04-07T02:08:59.574Z,15.23
2019-04-07T02:11:57.048Z,15.93
2019-04-07T02:14:39.473Z,17.30
2019-04-07T02:17:28.458Z,17.63
2019-04-07T02:20:12.585Z,17.30
2019-04-07T02:23:12.957Z,16.07
2019-04-07T02:25:52.756Z,15.97
2019-04-07T02:28:59.448Z,16.17
2019-04-07T02:31:47.872Z,16.87
2019-04-07T02:34:36.235Z,17.23
2019-04-07T02:37:28.273Z,14.93
2019-04-07T02:40:08.505Z,17.37
2019-04-07T02:43:00.889Z,16.53
2019-04-07T02:45:50.687Z,16.37
2019-04-07T02:48:30.581Z,16.67
2019-04-07T02:51:16.516Z,15.43
2019-04-07T02:53:58.436Z,16.10
2019-04-07T02:56:46.238Z,15.03
2019-04-07T02:59:41.153Z,16.23
2019-04-07T03:02:37.839Z,14.50
2019-04-07T03:05:26.709Z,17.03
2019-04-07T03:08:18.444Z,15.27
2019-04-07T03:10:57.392Z,15.80
2019-04-07T03:13:35.047Z,15.70
2019-04-07T03:16:26.741Z,16.83
2019-04-07T03:19:10.243Z,17.13
2019-04-07T03:21:44.240Z,16.20
2019-04-07T03:24:35.685Z,17.03
2019-04-07T03:27:15.600Z,16.67
2019-04-07T03:30:13.983Z,16.70
2019-04-07T03:33:03.635Z,16.80
2019-04-07T03:35:50.220Z,17.17
2019-04-07T03:38:36.720Z,16.90
2019-04-07T03:41:23.932Z,16.80
2019-04-07T03:44:15.072Z,17.30
2019-04-07T03:46:59.639Z,16.40
2019-04-07T03:49:49.865Z,16.70
2019-04-07T03:52:35.440Z,15.83
2019-04-07T03:55:15.443Z,17.00
2019-04-07T03:58:14.137Z,15.93
2019-04-07T04:01:33.965Z,17.70
2019-04-07T04:04:30.190Z,17.70
2019-04-07T04:07:19.089Z,16.57
2019-04-07T04:09:40.654Z,16.37
2019-04-07T04:12:21.120Z,17.17
2019-04-07T04:14:55.300Z,17.47
2019-04-07T04:17:25.152Z,17.70
2019-04-07T04:19:55.206Z,17.00
2019-04-07T04:22:24.864Z,17.20
2019-04-07T04:24:54.339Z,16.27
2019-04-07T04:27:23.910Z,16.67
2019-04-07T04:29:54.693Z,15.57
2019-04-07T04:32:25.538Z,16.50
2019-04-07T04:34:56.161Z,18.67
2019-04-07T04:37:36.890Z,18.10
2019-04-07T04:39:57.435Z,20.03
2019-04-07T04:42:27.473Z,19.83
2019-04-07T04:44:56.953Z,20.23
2019-04-07T04:47:27.396Z,20.30
2019-04-07T04:49:57.728Z,19.73
2019-04-07T04:52:27.816Z,20.83
2019-04-07T04:54:57.319Z,20.73
2019-04-07T04:57:27.129Z,20.57
2019-04-07T04:59:56.695Z,20.90
2019-04-07T05:02:27.507Z,20.10
2019-04-07T05:04:57.428Z,19.80
2019-04-07T05:07:27.062Z,20.57
2019-04-07T05:09:56.786Z,19.97
2019-04-07T05:12:26.632Z,19.63
2019-04-07T05:14:56.121Z,19.03
2019-04-07T05:17:26.065Z,17.50
2019-04-07T05:19:56.534Z,17.10
2019-04-07T05:22:26.748Z,18.90
2019-04-07T05:24:56.659Z,18.07
2019-04-07T05:27:27.564Z,19.00
2019-04-07T05:29:57.337Z,19.03
2019-04-07T05:32:26.874Z,19.17
2019-04-07T05:34:56.729Z,19.50
2019-04-07T05:37:26.840Z,21.97
2019-04-07T05:39:56.692Z,20.80
2019-04-07T05:42:26.227Z,19.67
2019-04-07T05:44:56.063Z,19.43
2019-04-07T05:47:25.571Z,19.97
2019-04-07T05:49:57.445Z,19.47
2019-04-07T05:52:26.185Z,21.03
2019-04-07T05:54:56.279Z,23.70
2019-04-07T05:57:26.199Z,23.00
2019-04-07T05:59:55.993Z,25.40
2019-04-07T06:02:25.612Z,25.83
2019-04-07T06:04:59.484Z,26.67
2019-04-07T06:07:30.682Z,26.27
2019-04-07T06:10:00.026Z,26.93
2019-04-07T06:12:31.617Z,23.43
2019-04-07T06:15:01.886Z,24.37
2019-04-07T06:17:31.835Z,25.20
2019-04-07T06:20:01.532Z,25.90
2019-04-07T06:22:32.802Z,26.43
2019-04-07T06:25:04.048Z,26.37
2019-04-07T06:27:34.553Z,27.17
2019-04-07T06:30:07.412Z,26.03
2019-04-07T06:32:39.498Z,26.30
2019-04-07T06:35:16.063Z,24.50
2019-04-07T06:37:46.655Z,25.37
2019-04-07T06:40:20.266Z,21.80
2019-04-07T06:42:48.876Z,23.60
2019-04-07T06:45:23.456Z,24.73
2019-04-07T06:47:57.124Z,23.93
2019-04-07T06:50:56.651Z,24.63
2019-04-07T06:53:46.783Z,23.77
2019-04-07T06:56:32.203Z,22.70
2019-04-07T06:59:16.548Z,21.30
2019-04-07T07:02:05.485Z,21.90
2019-04-07T07:04:54.044Z,20.43
2019-04-07T07:07:40.278Z,21.03
2019-04-07T07:10:30.342Z,18.70
2019-04-07T07:13:11.811Z,19.60
2019-04-07T07:15:57.291Z,16.47
2019-04-07T07:18:35.846Z,15.80
2019-04-07T07:21:24.635Z,15.27
2019-04-07T07:23:54.480Z,16.67
2019-04-07T07:26:24.477Z,16.00
2019-04-07T07:28:54.302Z,16.03
2019-04-07T07:31:25.484Z,15.07
2019-04-07T07:33:55.034Z,16.03
2019-04-07T07:36:24.522Z,15.60
2019-04-07T07:38:59.094Z,15.53
2019-04-07T07:41:25.357Z,14.77
2019-04-07T07:43:57.671Z,15.27
2019-04-07T07:46:26.796Z,15.27
2019-04-07T07:49:00.705Z,15.53
2019-04-07T07:51:27.750Z,15.18
2019-04-07T07:54:00.486Z,14.87
2019-04-07T07:56:29.081Z,14.93
2019-04-07T07:59:00.795Z,15.25
2019-04-07T08:01:29.963Z,15.80
2019-04-07T08:03:59.751Z,15.63
2019-04-07T08:06:29.500Z,15.08
2019-04-07T08:09:09.810Z,14.68
2019-04-07T08:11:32.209Z,14.53
2019-04-07T08:14:01.294Z,14.80
2019-04-07T08:16:31.520Z,14.83
2019-04-07T08:19:01.496Z,14.90
2019-04-07T08:21:31.590Z,15.75
2019-04-07T08:24:01.415Z,15.40
2019-04-07T08:26:31.734Z,14.40
2019-04-07T08:29:05.709Z,15.45
2019-04-07T08:31:32.724Z,14.45
2019-04-07T08:34:02.354Z,14.30
2019-04-07T08:36:32.637Z,13.95
2019-04-07T08:39:02.303Z,15.10
2019-04-07T08:41:32.536Z,14.23
2019-04-07T08:44:02.861Z,15.23
2019-04-07T08:46:39.719Z,14.58
2019-04-07T08:49:04.163Z,14.55
2019-04-07T08:51:33.739Z,15.10
2019-04-07T08:54:04.780Z,15.93
2019-04-07T08:56:34.378Z,15.45
2019-04-07T08:59:03.960Z,15.18
2019-04-07T09:01:33.478Z,15.55
2019-04-07T09:04:02.954Z,15.18
2019-04-07T09:06:33.195Z,15.05
2019-04-07T09:09:04.009Z,14.68
2019-04-07T09:11:34.646Z,15.10
2019-04-07T09:14:06.039Z,14.58
2019-04-07T09:17:09.437Z,16.30
2019-04-07T09:20:10.694Z,15.63
2019-04-07T09:23:09.134Z,16.00
2019-04-07T09:26:03.847Z,15.65
2019-04-07T09:28:37.933Z,15.72
2019-04-07T09:31:36.319Z,16.05
2019-04-07T09:34:28.123Z,15.13
2019-04-07T09:37:21.989Z,14.68
2019-04-07T09:40:17.242Z,15.58
2019-04-07T09:43:00.950Z,14.93
2019-04-07T09:46:03.543Z,14.93
2019-04-07T09:48:51.698Z,14.75
2019-04-07T09:51:41.672Z,13.85
2019-04-07T09:54:30.112Z,14.95
2019-04-07T09:57:30.496Z,16.55
2019-04-07T10:00:21.619Z,16.15
2019-04-07T10:03:21.305Z,15.60
2019-04-07T10:06:10.626Z,15.90
2019-04-07T10:08:57.230Z,16.05
2019-04-07T10:11:33.875Z,16.90
2019-04-07T10:14:22.982Z,17.10
2019-04-07T10:17:12.254Z,16.42
2019-04-07T10:20:06.553Z,16.73
2019-04-07T10:23:04.053Z,16.20
2019-04-07T10:25:56.123Z,16.07
2019-04-07T10:28:44.184Z,17.35
2019-04-07T10:31:23.579Z,15.55
2019-04-07T10:34:21.477Z,16.37
2019-04-07T10:37:08.464Z,14.78
2019-04-07T10:40:19.530Z,16.00
2019-04-07T10:43:17.531Z,15.32
2019-04-07T10:45:56.017Z,15.40
2019-04-07T10:48:43.510Z,15.15
2019-04-07T10:51:37.885Z,16.55
2019-04-07T10:54:26.772Z,14.95
2019-04-07T10:57:04.150Z,16.48
2019-04-07T10:59:53.306Z,15.72
2019-04-07T11:02:40.448Z,16.40
2019-04-07T11:05:18.570Z,15.48
2019-04-07T11:08:13.803Z,15.00
2019-04-07T11:11:08.591Z,14.87
2019-04-07T11:13:57.029Z,14.73
2019-04-07T11:16:45.374Z,14.83
2019-04-07T11:19:33.349Z,14.25
2019-04-07T11:22:25.392Z,13.58
2019-04-07T11:25:05.511Z,16.17
2019-04-07T11:27:42.084Z,16.60
2019-04-07T11:30:21.370Z,15.43
2019-04-07T11:33:10.595Z,14.38
2019-04-07T11:35:56.203Z,15.90
2019-04-07T11:38:45.229Z,15.28
2019-04-07T11:41:32.821Z,16.52
2019-04-07T11:44:19.224Z,17.37
2019-04-07T11:46:56.277Z,14.15
2019-04-07T11:49:35.766Z,15.93
2019-04-07T11:52:22.506Z,15.48
2019-04-07T11:55:11.884Z,16.35
2019-04-07T11:58:06.418Z,14.73
2019-04-07T12:00:42.831Z,13.85
2019-04-07T12:03:34.317Z,15.65
2019-04-07T12:06:28.048Z,15.00
2019-04-07T12:09:06.874Z,15.23
2019-04-07T12:11:55.788Z,15.50
2019-04-07T12:14:52.448Z,14.65
2019-04-07T12:17:46.650Z,15.13
2019-04-07T12:20:25.696Z,15.30
2019-04-07T12:23:10.428Z,15.20
2019-04-07T12:25:44.960Z,14.80
2019-04-07T12:28:36.595Z,16.45
2019-04-07T12:31:35.881Z,14.60
2019-04-07T12:34:14.030Z,13.78
2019-04-07T12:36:54.156Z,16.42
2019-04-07T12:39:38.970Z,14.25
2019-04-07T12:42:27.775Z,15.78
2019-04-07T12:45:23.410Z,15.85
2019-04-07T12:48:11.332Z,14.23
2019-04-07T12:51:05.296Z,14.35
2019-04-07T12:54:08.208Z,14.73
2019-04-07T12:56:48.874Z,14.70
2019-04-07T12:59:47.672Z,14.50
2019-04-07T13:02:46.663Z,14.93
2019-04-07T13:05:35.637Z,13.75
2019-04-07T13:08:24.112Z,15.10
2019-04-07T13:11:10.608Z,15.28
2019-04-07T13:13:49.108Z,16.32
2019-04-07T13:16:38.104Z,14.80
2019-04-07T13:19:35.608Z,15.72
2019-04-07T13:22:42.177Z,15.05
2019-04-07T13:25:29.262Z,16.70
2019-04-07T13:28:09.689Z,13.72
2019-04-07T13:30:46.947Z,14.47
2019-04-07T13:33:34.832Z,14.53
2019-04-07T13:36:23.594Z,16.05
2019-04-07T13:39:21.396Z,14.20
2019-04-07T13:42:19.631Z,14.20
2019-04-07T13:45:13.182Z,14.28
2019-04-07T13:48:20.825Z,12.95
2019-04-07T13:51:12.929Z,12.82
2019-04-07T13:54:01.062Z,13.03
2019-04-07T13:56:55.825Z,13.50
2019-04-07T13:59:45.198Z,12.30
2019-04-07T14:02:26.383Z,12.35
2019-04-07T14:05:12.882Z,12.43
2019-04-07T14:07:55.299Z,13.65
2019-04-07T14:10:33.638Z,12.23
2019-04-07T14:13:14.804Z,12.40
2019-04-07T14:16:01.925Z,11.48
2019-04-07T14:18:48.885Z,12.33
2019-04-07T14:21:41.512Z,12.78
2019-04-07T14:24:32.760Z,12.82
2019-04-07T14:27:07.601Z,13.03
2019-04-07T14:29:50.299Z,12.30
2019-04-07T14:32:37.413Z,11.73
2019-04-07T14:35:25.821Z,11.80
2019-04-07T14:38:14.711Z,12.90
2019-04-07T14:41:09.773Z,12.05
2019-04-07T14:43:58.177Z,10.58
2019-04-07T14:46:45.168Z,11.73
2019-04-07T14:49:53.011Z,11.43
2019-04-07T14:52:50.285Z,10.72
2019-04-07T14:55:36.813Z,10.32
2019-04-07T14:58:24.276Z,11.10
2019-04-07T15:01:18.057Z,11.10
2019-04-07T15:03:48.058Z,10.78
2019-04-07T15:06:18.505Z,10.35
2019-04-07T15:08:56.382Z,11.65
2019-04-07T15:11:47.491Z,10.85
2019-04-07T15:14:16.992Z,11.78
2019-04-07T15:16:46.509Z,12.03
2019-04-07T15:19:16.647Z,10.20
2019-04-07T15:21:46.417Z,11.70
2019-04-07T15:24:16.519Z,10.80
2019-04-07T15:26:49.545Z,10.72
2019-04-07T15:29:17.425Z,12.18
2019-04-07T15:31:50.649Z,13.00
2019-04-07T15:34:18.725Z,11.90
2019-04-07T15:36:49.728Z,10.68
2019-04-07T15:39:20.416Z,11.25
2019-04-07T15:41:50.970Z,11.43
2019-04-07T15:44:20.761Z,12.53
2019-04-07T15:46:53.218Z,12.43
2019-04-07T15:49:26.148Z,12.40
2019-04-07T15:51:52.882Z,11.60
2019-04-07T15:54:24.155Z,12.00
2019-04-07T15:56:57.662Z,11.88
2019-04-07T15:59:29.446Z,11.15
2019-04-07T16:01:57.398Z,11.70
2019-04-07T16:04:29.286Z,11.00
2019-04-07T16:06:57.995Z,10.68
2019-04-07T16:09:36.048Z,10.68
2019-04-07T16:11:59.459Z,10.95
2019-04-07T16:14:29.832Z,10.50
2019-04-07T16:17:02.819Z,10.05
2019-04-07T16:19:40.033Z,10.25
2019-04-07T16:22:01.614Z,9.43
2019-04-07T16:24:31.198Z,9.73
2019-04-07T16:27:03.311Z,10.32
2019-04-07T16:29:31.788Z,10.68
2019-04-07T16:32:01.926Z,8.93
2019-04-07T16:34:31.821Z,10.28
2019-04-07T16:37:01.872Z,10.23
2019-04-07T16:39:34.498Z,10.45
2019-04-07T16:42:03.187Z,10.28
2019-04-07T16:44:36.286Z,10.58
2019-04-07T16:47:04.278Z,9.45
2019-04-07T16:49:33.999Z,9.80
2019-04-07T16:52:04.605Z,10.05
2019-04-07T16:54:34.660Z,9.75
2019-04-07T16:57:04.184Z,10.03
2019-04-07T16:59:33.880Z,9.78
2019-04-07T17:02:03.780Z,10.25
2019-04-07T17:04:33.313Z,10.13
2019-04-07T17:07:05.332Z,9.23
2019-04-07T17:09:35.451Z,10.13
2019-04-07T17:12:05.205Z,9.50
2019-04-07T17:14:36.101Z,9.60
2019-04-07T17:17:05.875Z,9.70
2019-04-07T17:19:35.835Z,9.45
2019-04-07T17:22:05.431Z,10.40
2019-04-07T17:24:34.889Z,9.80
2019-04-07T17:27:04.637Z,9.55
2019-04-07T17:29:34.268Z,9.90
2019-04-07T17:32:05.961Z,9.53
2019-04-07T17:34:35.637Z,9.88
2019-04-07T17:37:05.253Z,9.58
2019-04-07T17:39:46.131Z,9.18
2019-04-07T17:42:18.426Z,9.00
2019-04-07T17:45:01.552Z,9.45
2019-04-07T17:48:08.145Z,8.78
2019-04-07T17:51:11.591Z,10.05
2019-04-07T17:53:58.109Z,9.48
2019-04-07T17:56:49.643Z,9.73
2019-04-07T17:59:38.964Z,8.95
2019-04-07T18:02:19.477Z,9.65
2019-04-07T18:05:26.582Z,9.85
2019-04-07T18:08:15.848Z,9.35
2019-04-07T18:11:07.557Z,9.15
2019-04-07T18:14:07.849Z,8.95
2019-04-07T18:16:54.838Z,9.55
2019-04-07T18:19:42.031Z,9.60
2019-04-07T18:22:29.769Z,9.40
2019-04-07T18:25:19.848Z,9.05
2019-04-07T18:28:21.564Z,8.98
2019-04-07T18:31:20.008Z,8.90
2019-04-07T18:34:08.651Z,9.45
2019-04-07T18:37:07.001Z,8.95
2019-04-07T18:40:00.652Z,9.65
2019-04-07T18:42:53.538Z,8.80
2019-04-07T18:45:54.817Z,9.25
2019-04-07T18:48:59.147Z,8.75
2019-04-07T18:51:47.140Z,9.95
2019-04-07T18:54:46.468Z,9.23
2019-04-07T18:57:34.802Z,9.75
2019-04-07T19:00:24.533Z,10.05
2019-04-07T19:03:10.612Z,10.13
2019-04-07T19:06:08.759Z,10.45
2019-04-07T19:08:49.411Z,9.80
2019-04-07T19:11:39.782Z,10.95
2019-04-07T19:14:40.159Z,11.22
2019-04-07T19:17:06.024Z,11.12
2019-04-07T19:19:53.214Z,11.13
2019-04-07T19:22:32.783Z,10.65
2019-04-07T19:25:21.536Z,10.72
2019-04-07T19:28:12.860Z,10.10
2019-04-07T19:31:07.135Z,10.73
2019-04-07T19:33:57.950Z,10.43
2019-04-07T19:36:52.184Z,11.17
2019-04-07T19:39:31.757Z,10.68
2019-04-07T19:42:34.901Z,10.90
2019-04-07T19:45:13.999Z,10.70
2019-04-07T19:48:10.043Z,10.80
2019-04-07T19:50:59.645Z,11.20
2019-04-07T19:53:45.573Z,11.40
2019-04-07T19:56:37.186Z,11.55
2019-04-07T19:59:17.352Z,11.08
2019-04-07T20:02:06.175Z,10.73
2019-04-07T20:04:52.884Z,10.83
2019-04-07T20:07:36.896Z,10.50
2019-04-07T20:10:26.934Z,11.00
2019-04-07T20:13:15.788Z,10.57
2019-04-07T20:16:03.046Z,11.23
2019-04-07T20:18:57.898Z,11.00
2019-04-07T20:22:02.642Z,10.57
2019-04-07T20:25:00.822Z,11.47
2019-04-07T20:27:49.538Z,10.87
2019-04-07T20:30:38.059Z,10.80
2019-04-07T20:33:21.448Z,12.10
2019-04-07T20:36:19.348Z,10.90
2019-04-07T20:39:07.938Z,11.77
2019-04-07T20:42:03.057Z,10.57
2019-04-07T20:45:04.246Z,11.67
2019-04-07T20:47:48.290Z,12.30
2019-04-07T20:50:35.711Z,12.57
2019-04-07T20:53:30.183Z,14.90
2019-04-07T20:56:27.172Z,13.40
2019-04-07T20:59:20.400Z,11.93
2019-04-07T21:02:09.785Z,12.37
2019-04-07T21:05:03.317Z,12.23
2019-04-07T21:07:51.766Z,11.33
2019-04-07T21:10:46.731Z,10.63
2019-04-07T21:13:26.718Z,10.68
2019-04-07T21:16:23.524Z,11.17
2019-04-07T21:19:08.314Z,9.80
2019-04-07T21:22:00.095Z,9.83
2019-04-07T21:24:55.173Z,9.60
2019-04-07T21:28:03.411Z,10.10
2019-04-07T21:30:51.629Z,9.63
2019-04-07T21:33:44.196Z,9.40
2019-04-07T21:36:32.198Z,10.13
2019-04-07T21:39:31.530Z,9.63
2019-04-07T21:42:13.605Z,10.13
2019-04-07T21:45:07.652Z,9.60
2019-04-07T21:48:00.534Z,9.70
2019-04-07T21:51:02.353Z,9.00
2019-04-07T21:53:44.303Z,9.80
2019-04-07T21:56:39.120Z,9.57
2019-04-07T21:59:30.953Z,9.63
2019-04-07T22:02:26.423Z,8.97
2019-04-07T22:05:24.030Z,9.47
2019-04-07T22:08:08.043Z,9.63
2019-04-07T22:10:34.030Z,9.20
2019-04-07T22:13:04.962Z,9.30
2019-04-07T22:15:42.991Z,9.13
2019-04-07T22:18:08.566Z,9.57
2019-04-07T22:20:36.995Z,9.13
2019-04-07T22:23:09.558Z,9.40
2019-04-07T22:25:48.288Z,9.40
2019-04-07T22:28:18.498Z,8.93
2019-04-07T22:30:48.756Z,9.00
2019-04-07T22:33:23.799Z,9.40
2019-04-07T22:35:49.103Z,9.17
2019-04-07T22:38:22.018Z,9.30
2019-04-07T22:40:49.990Z,9.30
2019-04-07T22:43:20.028Z,9.13
2019-04-07T22:45:59.266Z,8.60
2019-04-07T22:48:24.601Z,9.13
2019-04-07T22:50:52.239Z,8.40
2019-04-07T22:53:25.013Z,9.20
2019-04-07T22:55:52.868Z,8.87
2019-04-07T22:58:22.327Z,8.93
2019-04-07T23:00:52.219Z,9.00
2019-04-07T23:03:21.796Z,8.20
2019-04-07T23:05:51.484Z,8.57
2019-04-07T23:08:21.008Z,8.27
2019-04-07T23:10:50.943Z,9.50
2019-04-07T23:13:20.573Z,8.53
2019-04-07T23:15:50.390Z,9.23
2019-04-07T23:18:20.721Z,8.83
2019-04-07T23:20:51.412Z,8.60
2019-04-07T23:23:21.793Z,8.37
2019-04-07T23:25:51.487Z,8.60
2019-04-07T23:28:20.965Z,8.07
2019-04-07T23:30:51.319Z,7.77
2019-04-07T23:33:20.493Z,8.43
2019-04-07T23:35:49.979Z,8.63
2019-04-07T23:38:19.801Z,8.47
2019-04-07T23:40:49.462Z,8.83
2019-04-07T23:43:19.453Z,9.50
2019-04-07T23:45:49.679Z,8.63
2019-04-07T23:48:19.400Z,8.60
2019-04-07T23:50:49.792Z,8.57
2019-04-07T23:53:55.552Z,9.37
2019-04-07T23:56:25.261Z,9.80
2019-04-07T23:58:54.993Z,9.77
